createdAt,value
2022-12-15T00:01:34.366Z,27.02
2022-12-15T00:06:54.032Z,31.20
2022-12-15T00:12:13.373Z,21.98
2022-12-15T00:17:32.953Z,22.10
2022-12-15T00:22:52.480Z,45.20
2022-12-15T00:28:15.078Z,32.47
2022-12-15T00:33:35.416Z,38.25
2022-12-15T00:38:43.198Z,35.67
2022-12-15T00:43:45.704Z,36.00
2022-12-15T00:48:47.093Z,29.92
2022-12-15T00:54:06.225Z,27.17
2022-12-15T00:59:25.692Z,27.02
2022-12-15T01:04:46.447Z,29.63
2022-12-15T01:10:05.779Z,28.23
2022-12-15T01:15:26.250Z,26.12
2022-12-15T01:20:27.038Z,30.23
2022-12-15T01:25:28.279Z,31.50
2022-12-15T01:30:29.039Z,27.25
2022-12-15T01:35:29.909Z,37.05
2022-12-15T01:40:45.520Z,29.67
2022-12-15T01:45:51.261Z,30.55
2022-12-15T01:51:01.507Z,30.10
2022-12-15T01:56:04.909Z,31.08
2022-12-15T02:01:06.691Z,29.23
2022-12-15T02:06:08.860Z,34.78
2022-12-15T02:11:43.813Z,32.95
2022-12-15T02:22:08.577Z,34.78
2022-12-15T02:27:41.487Z,32.28
2022-12-15T02:33:30.713Z,36.92
2022-12-15T02:38:35.651Z,33.95
2022-12-15T02:43:38.198Z,35.58
2022-12-15T02:49:19.418Z,39.40
2022-12-15T02:55:06.839Z,38.33
2022-12-15T03:00:11.203Z,32.72
2022-12-15T03:05:13.547Z,40.00
2022-12-15T03:10:14.819Z,34.80
2022-12-15T03:15:16.974Z,37.13
2022-12-15T03:20:17.733Z,35.33
2022-12-15T03:25:18.490Z,40.85
2022-12-15T03:30:20.066Z,37.47
2022-12-15T03:35:20.814Z,37.45
2022-12-15T03:40:21.958Z,39.50
2022-12-15T03:45:25.069Z,43.13
2022-12-15T03:50:28.292Z,42.75
2022-12-15T03:55:29.731Z,46.90
2022-12-15T04:00:30.502Z,41.45
2022-12-15T04:05:33.448Z,40.83
2022-12-15T04:10:35.395Z,44.38
2022-12-15T04:15:38.358Z,42.60
2022-12-15T04:20:40.192Z,41.37
2022-12-15T04:25:59.549Z,44.55
2022-12-15T04:31:29.289Z,37.28
2022-12-15T04:36:49.523Z,39.67
2022-12-15T04:42:10.688Z,43.78
2022-12-15T04:47:30.071Z,38.00
2022-12-15T04:52:49.724Z,37.20
2022-12-15T04:58:09.233Z,39.20
2022-12-15T05:03:28.679Z,31.50
2022-12-15T05:08:50.000Z,45.17
2022-12-15T05:14:10.006Z,34.28
2022-12-15T05:19:29.888Z,41.70
2022-12-15T05:24:49.356Z,38.28
2022-12-15T05:30:08.730Z,34.17
2022-12-15T05:35:09.925Z,36.60
2022-12-15T05:40:11.494Z,34.75
2022-12-15T05:45:12.566Z,38.22
2022-12-15T05:50:13.459Z,38.42
2022-12-15T05:55:14.621Z,32.78
2022-12-15T06:00:16.232Z,33.78
2022-12-15T06:05:17.333Z,35.65
2022-12-15T06:10:18.440Z,37.63
2022-12-15T06:15:19.268Z,35.20
2022-12-15T06:20:20.445Z,33.75
2022-12-15T06:25:21.177Z,40.08
2022-12-15T06:30:21.927Z,45.28
2022-12-15T06:35:22.667Z,51.70
2022-12-15T06:40:23.428Z,43.20
2022-12-15T06:45:24.215Z,37.83
2022-12-15T06:50:25.167Z,42.60
2022-12-15T06:55:25.879Z,45.75
2022-12-15T07:00:27.317Z,38.47
2022-12-15T07:05:28.268Z,40.97
2022-12-15T07:10:29.225Z,46.55
2022-12-15T07:15:31.004Z,40.42
2022-12-15T07:20:32.354Z,41.40
2022-12-15T07:25:35.494Z,42.10
2022-12-15T07:30:38.973Z,61.15
2022-12-15T07:35:40.041Z,63.10
2022-12-15T07:40:40.783Z,74.10
2022-12-15T07:45:44.491Z,55.05
2022-12-15T07:50:50.847Z,42.03
2022-12-15T07:56:07.369Z,52.58
2022-12-15T08:01:12.182Z,46.53
2022-12-15T08:06:14.385Z,50.42
2022-12-15T08:11:16.080Z,53.03
2022-12-15T08:16:17.060Z,55.63
2022-12-15T08:21:17.953Z,60.05
2022-12-15T08:26:22.621Z,64.25
2022-12-15T08:31:28.178Z,65.78
2022-12-15T08:36:29.477Z,58.90
2022-12-15T08:41:32.316Z,57.90
2022-12-15T08:46:34.476Z,62.15
2022-12-15T08:51:35.253Z,64.85
2022-12-15T08:56:36.091Z,55.35
2022-12-15T09:01:39.583Z,53.03
2022-12-15T09:06:40.561Z,56.60
2022-12-15T09:11:41.310Z,55.55
2022-12-15T09:16:42.192Z,63.15
2022-12-15T09:21:44.248Z,61.88
2022-12-15T09:26:45.714Z,64.00
2022-12-15T09:31:46.639Z,46.85
2022-12-15T09:36:47.389Z,64.03
2022-12-15T09:41:53.486Z,74.07
2022-12-15T09:47:06.202Z,64.47
2022-12-15T09:52:38.894Z,64.35
2022-12-15T09:57:45.923Z,66.03
2022-12-15T10:03:20.063Z,50.22
2022-12-15T10:08:22.651Z,75.70
2022-12-15T10:13:34.478Z,80.25
2022-12-15T10:19:08.130Z,80.28
2022-12-15T10:24:31.551Z,63.97
2022-12-15T10:29:59.729Z,75.78
2022-12-15T10:35:00.568Z,63.53
2022-12-15T10:40:01.932Z,63.90
2022-12-15T10:45:28.078Z,61.05
2022-12-15T10:50:29.274Z,65.62
2022-12-15T10:55:42.790Z,68.12
2022-12-15T11:00:45.728Z,68.85
2022-12-15T11:05:54.072Z,60.92
2022-12-15T11:11:15.813Z,66.00
2022-12-15T11:16:18.696Z,59.83
2022-12-15T11:26:57.892Z,65.43
2022-12-15T11:32:04.790Z,58.27
2022-12-15T11:38:26.556Z,61.17
2022-12-15T11:45:04.488Z,64.62
2022-12-15T11:51:28.730Z,61.03
2022-12-15T11:57:39.087Z,64.32
2022-12-15T12:03:18.717Z,71.10
2022-12-15T12:12:11.433Z,65.85
2022-12-15T12:17:38.179Z,75.75
2022-12-15T12:22:42.146Z,73.57
2022-12-15T12:27:57.259Z,68.57
2022-12-15T12:33:31.245Z,67.95
2022-12-15T12:38:50.588Z,46.40
2022-12-15T12:43:57.521Z,51.30
2022-12-15T12:49:28.887Z,50.20
2022-12-15T12:54:50.841Z,43.92
2022-12-15T13:00:26.172Z,43.35
2022-12-15T13:05:33.128Z,40.85
2022-12-15T13:10:39.620Z,41.10
2022-12-15T15:03:09.281Z,39.90
2022-12-15T15:08:27.883Z,36.10
2022-12-15T15:13:39.775Z,42.88
2022-12-15T15:18:43.061Z,38.22
2022-12-15T15:24:49.775Z,41.70
2022-12-15T15:29:51.351Z,36.10
2022-12-15T15:34:52.173Z,37.85
2022-12-15T15:39:54.933Z,37.70
2022-12-15T15:44:56.814Z,40.87
2022-12-15T15:49:59.134Z,66.55
2022-12-15T15:54:59.936Z,60.93
2022-12-15T16:00:01.967Z,48.55
2022-12-15T16:05:02.950Z,42.62
2022-12-15T16:10:17.454Z,84.18
2022-12-15T16:15:25.130Z,65.90
2022-12-15T16:20:28.356Z,72.55
2022-12-15T16:30:44.353Z,87.32
2022-12-15T16:35:47.549Z,107.63
2022-12-15T16:40:48.807Z,105.90
2022-12-15T16:45:51.685Z,105.72
2022-12-15T16:50:55.415Z,82.57
2022-12-15T16:55:58.107Z,140.25
2022-12-15T17:00:58.920Z,79.37
2022-12-15T17:06:03.599Z,63.00
2022-12-15T17:11:05.371Z,34.03
2022-12-15T17:16:10.070Z,87.75
2022-12-15T17:21:16.147Z,96.37
2022-12-15T17:26:30.309Z,57.55
2022-12-15T17:31:35.713Z,57.45
2022-12-15T17:36:37.100Z,30.10
2022-12-15T17:47:09.661Z,16.90
2022-12-15T17:52:27.602Z,18.83
2022-12-15T17:57:31.177Z,11.90
2022-12-15T18:02:32.182Z,8.20
2022-12-15T18:07:33.030Z,10.68
2022-12-15T18:12:35.365Z,11.65
2022-12-15T18:17:36.128Z,13.23
2022-12-15T18:22:37.275Z,9.80
2022-12-15T18:27:38.000Z,10.00
2022-12-15T18:32:41.394Z,19.98
2022-12-15T18:37:42.652Z,25.60
2022-12-15T18:42:45.985Z,15.38
2022-12-15T18:52:58.261Z,15.75
2022-12-15T18:58:00.986Z,30.65
2022-12-15T19:03:01.967Z,18.05
2022-12-15T19:08:27.155Z,18.45
2022-12-15T19:13:32.495Z,23.45
2022-12-15T19:18:52.223Z,34.28
2022-12-15T19:23:53.074Z,22.13
2022-12-15T19:28:54.309Z,27.60
2022-12-15T19:33:55.105Z,33.08
2022-12-15T19:38:55.846Z,58.60
2022-12-15T19:43:56.861Z,21.23
2022-12-15T19:48:57.594Z,8.73
2022-12-15T19:53:59.161Z,11.07
2022-12-15T19:58:59.878Z,52.97
2022-12-15T20:04:00.938Z,41.05
2022-12-15T20:09:01.987Z,11.82
2022-12-15T20:14:11.078Z,17.17
2022-12-15T20:19:11.875Z,13.52
2022-12-15T20:24:18.148Z,14.48
2022-12-15T20:29:28.838Z,11.23
2022-12-15T20:34:29.790Z,14.63
2022-12-15T20:39:30.590Z,13.40
2022-12-15T20:44:31.480Z,17.17
2022-12-15T20:49:32.331Z,13.77
2022-12-15T20:54:33.076Z,14.13
2022-12-15T20:59:33.958Z,38.08
2022-12-15T21:04:34.731Z,48.80
2022-12-15T21:09:35.569Z,14.48
2022-12-15T21:14:36.627Z,12.98
2022-12-15T21:19:37.433Z,10.27
2022-12-15T21:24:38.209Z,13.20
2022-12-15T21:29:39.365Z,12.32
2022-12-15T21:34:40.544Z,14.05
2022-12-15T21:39:41.330Z,19.70
2022-12-15T21:44:42.204Z,16.92
2022-12-15T21:49:42.956Z,17.12
2022-12-15T21:54:44.021Z,22.85
2022-12-15T21:59:44.889Z,16.92
2022-12-15T22:04:48.047Z,18.70
2022-12-15T22:09:48.922Z,17.02
2022-12-15T22:14:50.140Z,23.77
2022-12-15T22:19:52.634Z,25.67
2022-12-15T22:24:53.575Z,23.73
2022-12-15T22:29:55.910Z,20.23
2022-12-15T22:34:56.675Z,18.08
2022-12-15T22:39:57.375Z,20.10
2022-12-15T22:44:58.283Z,132.37
2022-12-15T22:49:59.086Z,38.47
2022-12-15T22:55:00.037Z,26.20
2022-12-15T23:00:06.873Z,29.30
2022-12-15T23:05:11.553Z,16.62
2022-12-15T23:10:33.370Z,15.45
2022-12-15T23:15:53.433Z,17.15
2022-12-15T23:20:55.881Z,15.05
2022-12-15T23:25:57.771Z,19.48
2022-12-15T23:30:58.748Z,19.95
2022-12-15T23:36:00.121Z,17.45
2022-12-15T23:41:01.415Z,19.35
2022-12-15T23:46:06.351Z,15.70
2022-12-15T23:51:12.832Z,17.05
2022-12-15T23:56:19.382Z,15.35
